Time;durP1;ratioP1;P1;durP2;ratioP2;P2;SDS_P1;SDS_P2;PMS_P1;PMS_P2;Temp;Humidity;BMP_temperature;BMP_pressure;BME280_temperature;BME280_humidity;BME280_pressure;Samples;Min_cycle;Max_cycle;Signal;HPM_P1;HPM_P2
2023/05/01 00:00:53;;;;;;;1.70;1.60;;;14.50;99.90;;;14.80;nan;100619.63;5029745;28;20743;-68
2023/05/01 00:03:20;;;;;;;1.17;1.13;;;14.50;99.90;;;14.80;nan;100622.25;5014130;28;20703;-70
2023/05/01 00:05:47;;;;;;;1.10;1.10;;;14.50;99.90;;;14.76;nan;100624.31;5025530;28;20637;-68
2023/05/01 00:08:14;;;;;;;1.07;1.07;;;14.40;99.90;;;14.75;nan;100625.28;5019440;28;20645;-68
2023/05/01 00:10:41;;;;;;;1.10;1.10;;;14.40;99.90;;;14.73;nan;100614.94;5014148;28;21244;-68
2023/05/01 00:13:08;;;;;;;1.20;1.17;;;14.40;99.90;;;14.73;nan;100606.22;5001186;28;21180;-68
2023/05/01 00:15:36;;;;;;;1.13;1.13;;;14.40;99.90;;;14.70;nan;100604.69;5015017;28;20692;-68
2023/05/01 00:18:03;;;;;;;1.30;1.30;;;14.40;99.90;;;14.72;nan;100604.53;5016189;28;21231;-68
2023/05/01 00:20:30;;;;;;;1.57;1.47;;;14.40;99.90;;;14.67;nan;100596.28;5017541;28;20649;-70
2023/05/01 00:22:57;;;;;;;1.30;1.30;;;14.30;99.90;;;14.63;nan;100594.84;5016103;28;20635;-68
2023/05/01 00:25:24;;;;;;;1.50;1.40;;;14.30;99.90;;;14.61;nan;100586.28;5006723;28;20664;-68
2023/05/01 00:27:51;;;;;;;1.40;1.30;;;14.30;99.90;;;14.58;nan;100591.81;5020087;28;21076;-68
2023/05/01 00:30:18;;;;;;;1.67;1.57;;;14.30;99.90;;;14.53;nan;100588.78;5019773;28;21080;-68
2023/05/01 00:32:44;;;;;;;1.70;1.43;;;14.20;99.90;;;14.52;nan;100587.13;5013732;28;21002;-68
2023/05/01 00:35:12;;;;;;;1.37;1.37;;;14.20;99.90;;;14.51;nan;100581.03;5018559;28;20636;-69
2023/05/01 00:37:39;;;;;;;1.20;1.10;;;14.10;99.90;;;14.48;nan;100585.75;5030288;28;20640;-68
2023/05/01 00:40:07;;;;;;;1.53;1.47;;;14.10;99.90;;;14.48;nan;100585.75;5017241;28;20755;-68
2023/05/01 00:42:36;;;;;;;1.60;1.50;;;14.10;99.90;;;14.47;nan;100569.16;5019897;28;20644;-68
2023/05/01 00:45:04;;;;;;;1.40;1.30;;;14.10;99.90;;;14.47;nan;100574.41;5013442;28;20675;-68
2023/05/01 00:47:32;;;;;;;1.03;1.00;;;14.10;99.90;;;14.47;nan;100578.81;5021250;28;20690;-69
2023/05/01 00:50:00;;;;;;;1.70;1.60;;;14.10;99.90;;;14.48;nan;100570.00;5005467;28;20674;-68
2023/05/01 00:52:26;;;;;;;1.43;1.40;;;14.10;99.90;;;14.47;nan;100565.69;5013019;28;20632;-67
2023/05/01 00:54:54;;;;;;;1.47;1.43;;;14.10;99.90;;;14.45;nan;100565.00;5005532;28;20638;-67
2023/05/01 00:57:21;;;;;;;1.67;1.57;;;14.10;99.90;;;14.43;nan;100565.16;5015698;28;21047;-69
2023/05/01 00:59:48;;;;;;;1.20;1.13;;;14.10;99.90;;;14.41;nan;100559.22;5008981;28;20749;-68
2023/05/01 01:02:15;;;;;;;1.20;1.20;;;14.10;99.90;;;14.42;nan;100558.22;5013558;28;20648;-68
2023/05/01 01:04:45;;;;;;;1.13;1.13;;;14.10;99.90;;;14.42;nan;100554.75;5013328;28;20626;-69
2023/05/01 01:07:54;;;;;;;2.03;1.67;;;14.10;99.90;;;14.37;nan;100552.56;5015344;28;20637;-68
2023/05/01 01:10:51;;;;;;;1.17;1.17;;;14.10;99.90;;;14.35;nan;100548.41;5008625;28;21089;-70
2023/05/01 01:13:31;;;;;;;1.10;1.10;;;14.00;99.90;;;14.32;nan;100544.25;5028398;28;20626;-68
2023/05/01 01:16:28;;;;;;;1.20;1.20;;;14.00;99.90;;;14.26;nan;100542.16;5027917;28;20633;-67
2023/05/01 01:19:17;;;;;;;1.20;1.10;;;13.90;99.90;;;14.22;nan;100537.31;5014834;28;20665;-68
2023/05/01 01:21:49;;;;;;;1.10;1.10;;;13.90;99.90;;;14.21;nan;100546.13;5012843;28;20644;-69
2023/05/01 01:24:46;;;;;;;1.07;1.07;;;13.90;99.90;;;14.19;nan;100541.03;5011526;28;20618;-69
2023/05/01 01:27:57;;;;;;;1.10;1.10;;;13.90;99.90;;;14.15;nan;100534.41;5011292;28;20687;-67
2023/05/01 01:30:46;;;;;;;1.63;1.40;;;13.90;99.90;;;14.13;nan;100538.94;5011348;28;20704;-69
2023/05/01 01:33:34;;;;;;;1.00;1.00;;;13.80;99.90;;;14.12;nan;100544.34;5002096;28;20642;-69
2023/05/01 01:36:11;;;;;;;1.67;1.60;;;13.80;99.90;;;14.08;nan;100540.31;5003502;28;20701;-68
2023/05/01 01:39:08;;;;;;;1.50;1.27;;;13.80;99.90;;;14.05;nan;100537.97;5009582;28;20665;-68
2023/05/01 01:41:37;;;;;;;1.07;1.07;;;13.80;99.90;;;14.01;nan;100530.34;4996418;28;20634;-69
2023/05/01 01:44:33;;;;;;;1.30;1.30;;;13.80;99.90;;;13.97;nan;100536.84;5009280;28;21189;-69
2023/05/01 01:47:06;;;;;;;1.10;1.10;;;13.70;99.90;;;13.90;nan;100538.34;5009861;28;21180;-70
2023/05/01 01:49:36;;;;;;;1.60;1.50;;;13.70;99.90;;;13.86;nan;100530.88;5010742;28;20664;-69
2023/05/01 01:52:05;;;;;;;1.30;1.20;;;13.60;99.90;;;13.83;nan;100539.84;5023928;28;20680;-69
2023/05/01 01:54:38;;;;;;;1.27;1.20;;;13.60;99.90;;;13.80;nan;100531.38;5017288;28;20625;-69
2023/05/01 01:57:08;;;;;;;1.77;1.67;;;13.50;99.90;;;13.76;nan;100527.38;5015166;28;21193;-68
2023/05/01 01:59:35;;;;;;;1.17;1.10;;;13.50;99.90;;;13.78;nan;100534.16;5006868;28;20676;-69
2023/05/01 02:02:04;;;;;;;1.50;1.50;;;13.50;99.90;;;13.78;nan;100534.16;5019247;28;20633;-68
2023/05/01 02:04:31;;;;;;;1.10;1.10;;;13.50;99.90;;;13.79;nan;100535.00;5010106;28;20618;-69
2023/05/01 02:07:00;;;;;;;2.83;1.60;;;13.50;99.90;;;13.80;nan;100540.09;5017048;28;20685;-70
2023/05/01 02:09:30;;;;;;;1.40;1.30;;;13.50;99.90;;;13.84;nan;100535.44;5029203;28;20638;-68
2023/05/01 02:11:59;;;;;;;1.70;1.60;;;13.60;99.90;;;13.85;nan;100534.44;5005189;28;20640;-71
2023/05/01 02:14:27;;;;;;;1.57;1.40;;;13.60;99.90;;;13.87;nan;100543.84;5007152;28;20633;-68
2023/05/01 02:16:56;;;;;;;2.47;1.90;;;13.60;99.90;;;13.90;nan;100537.53;5020442;28;20633;-69
2023/05/01 02:19:25;;;;;;;1.70;1.60;;;13.60;99.90;;;13.88;nan;100536.81;5015481;28;20679;-71
2023/05/01 02:21:56;;;;;;;1.50;1.50;;;13.60;99.90;;;13.91;nan;100531.28;5010447;28;20633;-69
2023/05/01 02:24:24;;;;;;;1.50;1.40;;;13.60;99.90;;;13.91;nan;100542.63;5009821;28;20617;-70
2023/05/01 02:26:58;;;;;;;1.17;1.17;;;13.70;99.90;;;13.91;nan;100539.16;5010762;28;20638;-69
2023/05/01 02:29:26;;;;;;;1.50;1.40;;;13.70;99.90;;;13.84;nan;100538.06;4990846;28;20669;-70
2023/05/01 02:31:53;;;;;;;2.10;1.60;;;13.60;99.90;;;13.81;nan;100539.16;5010984;28;20616;-71
2023/05/01 02:34:21;;;;;;;1.70;1.60;;;13.50;99.90;;;13.77;nan;100535.13;5029854;28;20620;-69
2023/05/01 02:36:48;;;;;;;1.60;1.60;;;13.50;99.90;;;13.74;nan;100529.31;5027088;28;20651;-69
2023/05/01 02:39:15;;;;;;;1.80;1.47;;;13.50;99.90;;;13.72;nan;100533.84;5002479;28;20669;-69
2023/05/01 02:41:43;;;;;;;1.67;1.57;;;13.40;99.90;;;13.72;nan;100518.97;5008864;28;20640;-69
2023/05/01 02:44:11;;;;;;;1.43;1.33;;;13.50;99.90;;;13.73;nan;100528.50;5008710;28;20625;-69
2023/05/01 02:46:43;;;;;;;1.37;1.37;;;13.50;99.90;;;13.71;nan;100529.59;4993641;28;20638;-69
2023/05/01 02:49:12;;;;;;;1.50;1.40;;;13.40;99.90;;;13.65;nan;100528.31;5010462;28;20984;-69
2023/05/01 02:51:40;;;;;;;1.13;1.10;;;13.40;99.90;;;13.62;nan;100523.34;5033416;22;20689;-67
2023/05/01 02:54:07;;;;;;;1.80;1.70;;;13.40;99.90;;;13.60;nan;100519.19;5004214;28;20630;-67
2023/05/01 02:56:34;;;;;;;1.00;1.00;;;13.30;99.90;;;13.57;nan;100520.28;5002463;28;20630;-68
2023/05/01 02:59:01;;;;;;;1.10;1.10;;;13.30;99.90;;;13.54;nan;100515.31;5029835;28;21284;-68
2023/05/01 03:01:28;;;;;;;1.70;1.60;;;13.30;99.90;;;13.52;nan;100509.34;5018252;28;20711;-67
2023/05/01 03:03:55;;;;;;;1.60;1.50;;;13.30;99.90;;;13.52;nan;100501.47;5009467;28;20636;-67
2023/05/01 03:06:22;;;;;;;1.70;1.60;;;13.30;99.90;;;13.46;nan;100504.63;5010773;28;20641;-67
2023/05/01 03:08:50;;;;;;;1.60;1.53;;;13.20;99.90;;;13.41;nan;100504.22;5006620;28;20633;-67
2023/05/01 03:11:17;;;;;;;1.90;1.80;;;13.20;99.90;;;13.36;nan;100511.63;5010069;28;21015;-67
2023/05/01 03:13:45;;;;;;;1.57;1.47;;;13.10;99.90;;;13.32;nan;100505.00;5009508;28;21007;-67
2023/05/01 03:16:12;;;;;;;1.30;1.30;;;13.10;99.90;;;13.29;nan;100502.63;5010762;28;20634;-67
2023/05/01 03:18:39;;;;;;;1.63;1.53;;;13.10;99.90;;;13.26;nan;100505.53;5010430;28;20614;-67
2023/05/01 03:21:06;;;;;;;1.63;1.53;;;13.00;99.90;;;13.27;nan;100503.75;5008842;28;20680;-67
2023/05/01 03:23:33;;;;;;;1.20;1.20;;;13.00;99.90;;;13.24;nan;100503.00;5010365;28;20633;-67
2023/05/01 03:26:00;;;;;;;1.30;1.30;;;13.00;99.90;;;13.20;nan;100509.47;5014130;28;20605;-67
2023/05/01 03:28:28;;;;;;;1.70;1.60;;;12.90;99.90;;;13.16;nan;100500.22;5013178;28;20786;-67
2023/05/01 03:30:55;;;;;;;1.70;1.60;;;12.90;99.90;;;13.12;nan;100503.22;5015043;28;20657;-67
2023/05/01 03:33:22;;;;;;;1.90;1.80;;;12.90;99.90;;;13.08;nan;100491.34;5014726;28;20632;-67
2023/05/01 03:36:00;;;;;;;2.07;1.97;;;12.90;99.90;;;13.05;nan;100487.19;5014834;28;20645;-67
2023/05/01 03:38:28;;;;;;;2.33;1.73;;;12.80;99.90;;;12.97;nan;100491.38;5013877;28;20636;-67
2023/05/01 03:40:56;;;;;;;2.17;2.07;;;12.80;99.90;;;12.95;nan;100488.91;5014977;28;20672;-67
2023/05/01 03:43:24;;;;;;;1.70;1.60;;;12.70;99.90;;;12.91;nan;100489.28;5005881;28;20621;-67
2023/05/01 03:45:51;;;;;;;1.90;1.80;;;12.70;99.90;;;12.89;nan;100491.19;5022427;28;20632;-68
2023/05/01 03:48:19;;;;;;;1.83;1.73;;;12.70;99.90;;;12.87;nan;100498.34;5011937;28;20691;-67
2023/05/01 03:50:46;;;;;;;1.53;1.43;;;12.70;99.90;;;12.83;nan;100489.94;5012201;28;20683;-67
2023/05/01 03:53:14;;;;;;;2.27;2.07;;;12.60;99.90;;;12.79;nan;100485.06;5012026;28;20641;-68
2023/05/01 03:55:41;;;;;;;1.63;1.60;;;12.60;99.90;;;12.77;nan;100485.22;5013592;28;20644;-66
2023/05/01 03:58:09;;;;;;;1.83;1.73;;;12.50;99.90;;;12.71;nan;100482.28;5013592;28;20636;-67
2023/05/01 04:00:36;;;;;;;2.07;1.97;;;12.50;99.90;;;12.73;nan;100483.81;5011844;28;20673;-67
2023/05/01 04:03:04;;;;;;;1.93;1.83;;;12.50;99.90;;;12.67;nan;100486.09;5013246;28;20994;-68
2023/05/01 04:05:32;;;;;;;1.77;1.67;;;12.40;99.90;;;12.62;nan;100477.78;5012725;28;20673;-67
2023/05/01 04:07:59;;;;;;;2.00;1.90;;;12.40;99.90;;;12.61;nan;100486.59;5011134;28;20633;-67
2023/05/01 04:10:26;;;;;;;1.70;1.70;;;12.30;99.90;;;12.63;nan;100485.50;5013021;28;20723;-67
2023/05/01 04:12:53;;;;;;;1.93;1.83;;;12.40;99.90;;;12.69;nan;100484.19;5011407;28;22066;-67
2023/05/01 04:15:21;;;;;;;1.60;1.50;;;12.40;99.90;;;12.70;nan;100483.22;5018264;28;20632;-67
2023/05/01 04:17:48;;;;;;;2.27;2.17;;;12.40;99.90;;;12.75;nan;100486.28;5012356;28;20649;-67
2023/05/01 04:20:15;;;;;;;2.10;2.00;;;12.50;99.90;;;12.75;nan;100487.13;5013473;28;20675;-67
2023/05/01 04:22:42;;;;;;;2.00;1.90;;;12.50;99.90;;;12.77;nan;100482.59;5012019;28;20695;-67
2023/05/01 04:25:10;;;;;;;1.80;1.80;;;12.50;99.90;;;12.78;nan;100486.03;5014068;28;20613;-67
2023/05/01 04:27:36;;;;;;;1.90;1.80;;;12.50;99.90;;;12.80;nan;100484.13;5012559;28;20759;-67
2023/05/01 04:30:04;;;;;;;2.13;2.03;;;12.60;99.90;;;12.82;nan;100484.84;5015283;28;20668;-68
2023/05/01 04:32:31;;;;;;;1.90;1.80;;;12.60;99.90;;;12.82;nan;100487.47;5022163;28;20637;-68
2023/05/01 04:34:58;;;;;;;2.00;1.90;;;12.60;99.90;;;12.84;nan;100485.53;5011843;28;20641;-67
2023/05/01 04:37:25;;;;;;;1.90;1.80;;;12.60;99.90;;;12.86;nan;100486.25;5012059;28;20633;-67
2023/05/01 04:39:52;;;;;;;1.47;1.47;;;12.60;99.90;;;12.85;nan;100488.00;5012397;28;20668;-68
2023/05/01 04:42:20;;;;;;;1.93;1.87;;;12.60;99.90;;;12.85;nan;100481.94;5012305;28;20633;-67
2023/05/01 04:44:47;;;;;;;1.80;1.70;;;12.60;99.90;;;12.84;nan;100485.53;5012662;28;20991;-67
2023/05/01 04:47:15;;;;;;;2.10;1.90;;;12.60;99.90;;;12.84;nan;100482.91;5009050;28;21011;-67
2023/05/01 04:49:42;;;;;;;2.00;1.90;;;12.60;99.90;;;12.80;nan;100492.00;5017621;28;20648;-67
2023/05/01 04:52:09;;;;;;;2.33;1.97;;;12.50;99.90;;;12.75;nan;100479.28;5011624;28;21076;-66
2023/05/01 04:54:36;;;;;;;1.70;1.60;;;12.50;99.90;;;12.75;nan;100488.91;5003644;28;21006;-67
2023/05/01 04:57:03;;;;;;;2.00;1.90;;;12.50;99.90;;;12.74;nan;100492.47;5017471;28;20629;-67
2023/05/01 04:59:30;;;;;;;2.40;1.90;;;12.50;99.90;;;12.73;nan;100491.66;5014788;28;20633;-67
2023/05/01 05:01:57;;;;;;;2.03;1.93;;;12.40;99.90;;;12.72;nan;100490.00;5011063;28;20655;-68
2023/05/01 05:04:24;;;;;;;1.73;1.70;;;12.40;99.90;;;12.71;nan;100492.75;5007437;28;20688;-67
2023/05/01 05:06:51;;;;;;;2.57;2.10;;;12.40;99.90;;;12.70;nan;100491.91;5004750;28;20688;-68
2023/05/01 05:09:18;;;;;;;1.77;1.67;;;12.40;99.90;;;12.70;nan;100496.31;5013251;28;20625;-67
2023/05/01 05:11:46;;;;;;;2.40;2.20;;;12.40;99.90;;;12.69;nan;100495.47;5011413;28;20668;-67
2023/05/01 05:14:13;;;;;;;2.10;1.80;;;12.40;99.90;;;12.73;nan;100491.66;5013483;28;21207;-68
2023/05/01 05:16:40;;;;;;;3.27;2.10;;;12.40;99.90;;;12.81;nan;100491.84;5022620;28;20628;-67
2023/05/01 05:19:07;;;;;;;2.27;2.17;;;12.50;99.90;;;12.88;nan;100492.16;5008050;28;20699;-69
2023/05/01 05:21:34;;;;;;;2.50;1.77;;;12.60;99.90;;;12.91;nan;100494.53;5001462;28;20677;-66
2023/05/01 05:24:01;;;;;;;11.03;2.13;;;12.70;99.90;;;12.97;nan;100492.22;5004708;28;21185;-68
2023/05/01 05:26:28;;;;;;;2.10;2.00;;;12.70;99.90;;;12.99;nan;100494.72;5011332;28;20624;-68
2023/05/01 05:28:55;;;;;;;1.40;1.40;;;12.70;99.90;;;13.06;nan;100493.25;5007368;28;20728;-68
2023/05/01 05:31:22;;;;;;;2.20;2.10;;;12.80;99.90;;;13.12;nan;100490.13;5027571;28;20698;-68
2023/05/01 05:33:49;;;;;;;2.10;2.00;;;12.90;99.90;;;13.16;nan;100497.59;5031949;28;21184;-68
2023/05/01 05:36:16;;;;;;;5.50;1.80;;;12.90;99.90;;;13.26;nan;100489.81;5029222;28;20624;-68
2023/05/01 05:38:43;;;;;;;2.20;2.00;;;13.00;99.90;;;13.39;nan;100493.03;5020067;28;20644;-68
2023/05/01 05:41:10;;;;;;;2.03;1.83;;;13.10;99.90;;;13.46;nan;100495.97;5023180;28;20730;-68
2023/05/01 05:43:37;;;;;;;1.97;1.87;;;13.20;99.90;;;13.53;nan;100491.84;5019373;28;20695;-68
2023/05/01 05:46:04;;;;;;;2.60;2.40;;;13.20;99.90;;;13.54;nan;100488.25;5012859;28;20687;-68
2023/05/01 05:48:31;;;;;;;2.07;1.93;;;13.30;99.90;;;13.59;nan;100489.50;5009945;28;20634;-68
2023/05/01 05:50:58;;;;;;;1.47;1.47;;;13.30;99.90;;;13.68;nan;100491.34;5007133;28;20685;-68
2023/05/01 05:53:25;;;;;;;1.90;1.80;;;13.40;99.90;;;13.79;nan;100493.03;5000455;28;21266;-68
2023/05/01 05:55:52;;;;;;;2.10;2.00;;;13.50;99.90;;;13.85;nan;100482.84;4999707;28;20630;-68
2023/05/01 05:58:20;;;;;;;1.80;1.70;;;13.50;99.90;;;13.91;nan;100484.09;4997454;28;20702;-68
2023/05/01 06:00:48;;;;;;;2.00;1.90;;;13.60;99.90;;;13.96;nan;100480.09;4997829;28;20735;-68
2023/05/01 06:03:15;;;;;;;1.50;1.50;;;13.70;99.90;;;14.03;nan;100478.56;5004406;28;20645;-67
2023/05/01 06:05:43;;;;;;;1.77;1.63;;;13.70;99.90;;;14.17;nan;100489.66;5006310;28;20637;-68
2023/05/01 06:08:10;;;;;;;2.10;2.00;;;13.90;99.90;;;14.21;nan;100483.16;4996981;28;20714;-68
2023/05/01 06:10:43;;;;;;;2.50;2.30;;;13.90;99.90;;;14.33;nan;100484.75;5006967;28;20669;-68
2023/05/01 06:13:11;;;;;;;1.80;1.70;;;14.00;99.90;;;14.46;nan;100482.69;5003966;28;21063;-69
2023/05/01 06:15:41;;;;;;;1.43;1.43;;;14.10;99.90;;;14.52;nan;100482.13;5006121;28;20638;-68
2023/05/01 06:18:08;;;;;;;2.23;2.13;;;14.20;99.90;;;14.60;nan;100483.06;5010567;28;20989;-68
2023/05/01 06:20:35;;;;;;;1.40;1.30;;;14.30;99.90;;;14.69;nan;100484.03;5009351;28;20680;-68
2023/05/01 06:23:02;;;;;;;2.20;2.10;;;14.40;99.90;;;14.76;nan;100475.44;5010922;28;20629;-69
2023/05/01 06:25:29;;;;;;;1.80;1.73;;;14.50;99.90;;;14.87;nan;100478.88;5009567;28;20621;-68
2023/05/01 06:27:57;;;;;;;2.17;1.70;;;14.60;99.90;;;15.00;nan;100487.28;5008737;28;20633;-68
2023/05/01 06:30:23;;;;;;;2.40;2.20;;;14.70;99.90;;;15.04;nan;100473.72;5011545;28;20661;-67
2023/05/01 06:32:50;;;;;;;2.33;2.13;;;14.80;99.90;;;15.13;nan;100477.28;5010564;28;20641;-69
2023/05/01 06:35:18;;;;;;;4.10;1.97;;;14.80;99.90;;;15.19;nan;100474.94;5011383;28;20636;-68
2023/05/01 06:37:45;;;;;;;1.90;1.70;;;14.90;99.90;;;15.27;nan;100472.41;5009717;28;20710;-68
2023/05/01 06:40:11;;;;;;;1.60;1.33;;;15.00;99.90;;;15.36;nan;100482.06;5010325;28;21229;-68
2023/05/01 06:42:39;;;;;;;1.73;1.63;;;15.10;99.90;;;15.37;nan;100475.84;5009387;28;20630;-68
2023/05/01 06:45:07;;;;;;;2.30;2.07;;;15.10;99.90;;;15.44;nan;100474.31;5011568;28;20609;-68
2023/05/01 06:47:34;;;;;;;2.27;1.90;;;15.20;99.90;;;15.53;nan;100478.69;5010443;28;20617;-68
2023/05/01 06:50:03;;;;;;;2.50;2.30;;;15.20;99.90;;;15.57;nan;100481.84;5008444;28;20667;-69
2023/05/01 06:52:31;;;;;;;2.20;2.10;;;15.30;99.90;;;15.63;nan;100480.47;5021081;28;20855;-68
2023/05/01 06:54:58;;;;;;;2.30;2.10;;;15.30;99.90;;;15.65;nan;100478.50;5010539;28;21000;-68
2023/05/01 06:57:25;;;;;;;2.50;2.30;;;15.30;99.90;;;15.69;nan;100482.50;5001201;28;20633;-68
2023/05/01 06:59:52;;;;;;;2.40;2.30;;;15.40;99.90;;;15.83;nan;100488.09;5000301;28;20655;-68
2023/05/01 07:02:20;;;;;;;2.10;2.00;;;15.50;99.90;;;16.01;nan;100480.25;5002444;28;20638;-68
2023/05/01 07:04:47;;;;;;;2.70;2.53;;;15.70;99.90;;;16.16;nan;100476.13;5005556;28;20994;-68
2023/05/01 07:07:14;;;;;;;2.20;2.10;;;15.90;99.90;;;16.35;nan;100475.97;5007251;28;20637;-68
2023/05/01 07:09:41;;;;;;;3.10;2.10;;;16.00;99.90;;;16.52;nan;100484.88;5013045;28;20629;-68
2023/05/01 07:12:08;;;;;;;3.10;2.27;;;16.20;99.90;;;16.76;nan;100485.88;5011150;28;20699;-68
2023/05/01 07:14:36;;;;;;;1.90;1.80;;;16.40;99.90;;;16.93;nan;100485.03;5013646;28;20631;-68
2023/05/01 07:17:03;;;;;;;2.13;1.67;;;16.60;99.90;;;17.01;nan;100474.53;5014909;28;20644;-67
2023/05/01 07:19:30;;;;;;;2.23;2.00;;;16.70;99.90;;;17.13;nan;100484.81;5001875;28;20629;-68
2023/05/01 07:21:57;;;;;;;1.50;1.50;;;16.80;99.90;;;17.29;nan;100498.13;5014904;28;21045;-68
2023/05/01 07:24:24;;;;;;;1.87;1.77;;;16.90;99.90;;;17.37;nan;100488.44;5021146;28;20635;-68
2023/05/01 07:26:51;;;;;;;2.73;1.83;;;17.00;99.90;;;17.41;nan;100492.41;5025280;28;20632;-67
2023/05/01 07:29:18;;;;;;;1.70;1.50;;;17.10;99.90;;;17.43;nan;100495.72;5018137;28;20644;-68
2023/05/01 07:31:46;;;;;;;2.97;1.93;;;17.10;99.90;;;17.44;nan;100493.91;5020445;28;20672;-68
2023/05/01 07:34:15;;;;;;;2.13;2.03;;;17.10;99.90;;;17.40;nan;100492.56;5020887;28;20633;-68
2023/05/01 07:36:42;;;;;;;2.57;1.90;;;17.10;99.90;;;17.34;nan;100490.53;5014541;28;21239;-68
2023/05/01 07:39:09;;;;;;;1.90;1.80;;;17.00;99.90;;;17.33;nan;100492.38;5014544;28;21204;-68
2023/05/01 07:41:36;;;;;;;2.60;2.40;;;17.00;99.90;;;17.26;nan;100490.50;5018084;28;20665;-68
2023/05/01 07:44:03;;;;;;;2.43;1.90;;;17.00;99.90;;;17.23;nan;100486.38;5012894;28;20633;-68
2023/05/01 07:46:30;;;;;;;2.33;2.13;;;16.90;99.90;;;17.25;nan;100488.88;5012239;28;20633;-68
2023/05/01 07:48:57;;;;;;;1.57;1.27;;;16.90;99.90;;;17.24;nan;100487.19;5013413;28;20629;-69
2023/05/01 07:51:24;;;;;;;2.07;1.93;;;16.90;99.90;;;17.28;nan;100478.81;5013683;28;21244;-68
2023/05/01 07:53:51;;;;;;;2.50;2.30;;;16.90;99.90;;;17.44;nan;100483.38;5006805;28;21209;-70
2023/05/01 07:56:18;;;;;;;2.20;2.10;;;17.10;99.90;;;17.59;nan;100473.91;5009686;28;20652;-69
2023/05/01 07:58:45;;;;;;;2.00;1.90;;;17.20;99.90;;;17.71;nan;100472.63;5008203;28;20649;-69
2023/05/01 08:01:12;;;;;;;3.00;2.80;;;17.40;99.90;;;17.80;nan;100471.66;5013375;28;20671;-69
2023/05/01 08:03:39;;;;;;;2.23;2.13;;;17.50;99.90;;;17.99;nan;100473.19;5012836;28;20637;-71
2023/05/01 08:06:06;;;;;;;3.40;2.40;;;17.60;99.90;;;18.25;nan;100469.44;5012423;28;20702;-69
2023/05/01 08:08:33;;;;;;;2.40;2.20;;;17.90;99.90;;;18.47;nan;100471.47;5012461;28;20664;-70
2023/05/01 08:11:00;;;;;;;1.63;1.57;;;18.10;99.90;;;18.93;nan;100485.00;5011016;28;20791;-69
2023/05/01 08:13:27;;;;;;;1.53;1.50;;;18.60;99.90;;;19.34;nan;100492.72;5011708;28;20629;-68
2023/05/01 08:15:54;;;;;;;1.90;1.80;;;18.90;99.90;;;19.75;nan;100485.44;5012774;28;20629;-70
2023/05/01 08:18:21;;;;;;;2.63;2.00;;;19.40;99.90;;;20.16;nan;100491.34;5013137;28;20633;-70
2023/05/01 08:20:49;;;;;;;2.50;2.40;;;19.80;99.10;;;20.85;nan;100493.00;5013608;28;21299;-69
2023/05/01 08:23:16;;;;;;;2.27;2.07;;;20.50;98.00;;;21.57;nan;100494.91;5012813;28;20655;-69
2023/05/01 08:25:45;;;;;;;2.03;1.93;;;21.20;96.20;;;22.24;nan;100490.25;5013071;28;20629;-70
2023/05/01 08:28:14;;;;;;;3.60;3.30;;;21.90;94.10;;;23.22;nan;100484.13;5012805;28;20648;-68
2023/05/01 08:30:41;;;;;;;4.87;2.60;;;22.90;92.20;;;24.82;nan;100486.94;5017440;28;20715;-69
2023/05/01 08:33:08;;;;;;;4.50;3.70;;;24.40;89.30;;;26.22;nan;100494.16;5019940;28;20656;-70
2023/05/01 08:35:35;;;;;;;3.80;3.50;;;25.90;81.50;;;26.22;nan;100494.16;5010243;28;21004;-70
2023/05/01 08:38:02;;;;;;;3.63;3.43;;;28.40;70.20;;;28.84;nan;100496.66;5009554;28;21197;-70
2023/05/01 08:40:33;;;;;;;5.33;3.23;;;28.70;66.60;;;28.93;nan;100493.41;5010649;28;20722;-69
2023/05/01 08:43:03;;;;;;;3.47;3.17;;;29.10;62.50;;;28.66;nan;100497.56;5005786;28;20980;-70
2023/05/01 08:45:36;;;;;;;3.20;3.00;;;28.90;61.70;;;28.51;nan;100499.84;4996256;28;20628;-70
2023/05/01 08:48:09;;;;;;;2.80;2.70;;;28.60;61.40;;;28.17;nan;100495.19;4999437;28;20644;-67
2023/05/01 08:50:38;;;;;;;3.63;3.10;;;28.30;61.10;;;27.81;nan;100485.34;4994287;28;20696;-69
2023/05/01 08:53:07;;;;;;;1.80;1.63;;;27.90;61.60;;;27.32;nan;100482.78;5011964;28;20629;-68
2023/05/01 08:55:36;;;;;;;2.93;2.57;;;27.50;59.80;;;26.41;nan;100484.38;5011135;28;20637;-69
2023/05/01 08:58:06;;;;;;;2.20;2.10;;;26.60;59.90;;;25.45;nan;100483.59;5015750;28;20639;-69
2023/05/01 09:00:36;;;;;;;2.90;2.57;;;25.80;60.90;;;24.16;nan;100480.69;5026143;28;20668;-69
2023/05/01 09:03:04;;;;;;;2.83;2.63;;;24.40;62.90;;;23.34;nan;100472.75;5012534;28;20689;-68
2023/05/01 09:05:32;;;;;;;2.47;2.37;;;23.50;64.90;;;22.95;nan;100475.16;5017666;28;20631;-67
2023/05/01 09:08:00;;;;;;;2.60;2.40;;;23.00;66.50;;;22.64;nan;100472.84;4997633;28;21197;-69
2023/05/01 09:10:27;;;;;;;2.80;2.37;;;22.60;67.10;;;22.27;nan;100465.13;5008251;28;20727;-68
2023/05/01 09:12:57;;;;;;;2.60;2.40;;;22.10;68.30;;;22.15;nan;100474.59;5002812;28;20630;-69
2023/05/01 09:15:28;;;;;;;2.93;2.63;;;21.90;69.20;;;22.07;nan;100469.41;5005678;28;20634;-69
2023/05/01 09:17:59;;;;;;;2.30;2.20;;;21.80;69.60;;;21.93;nan;100475.59;5003918;28;21211;-70
2023/05/01 09:20:29;;;;;;;2.30;2.00;;;21.60;70.20;;;21.72;nan;100472.84;5006123;28;21229;-70
2023/05/01 09:22:56;;;;;;;3.60;2.20;;;21.50;70.80;;;21.56;nan;100466.72;4996961;28;20641;-70
2023/05/01 09:25:23;;;;;;;4.10;2.00;;;21.30;69.90;;;21.75;nan;100473.28;5012627;28;20617;-71
2023/05/01 09:27:51;;;;;;;2.50;2.00;;;21.40;69.60;;;22.68;nan;100458.16;4995720;28;20645;-70
2023/05/01 09:30:33;;;;;;;2.57;2.30;;;22.20;69.00;;;24.18;nan;100460.00;5032150;28;20713;-69
2023/05/01 09:33:13;;;;;;;2.33;2.13;;;23.70;68.60;;;25.71;nan;100472.00;5006005;28;20692;-69
2023/05/01 09:35:54;;;;;;;1.80;1.70;;;25.20;66.70;;;27.19;nan;100472.22;4996286;28;20948;-69
2023/05/01 09:38:26;;;;;;;2.90;2.70;;;26.70;63.00;;;28.05;nan;100467.50;5007703;28;20641;-71
2023/05/01 09:41:03;;;;;;;1.80;1.70;;;27.70;59.50;;;28.33;nan;100468.53;5012541;28;21284;-70
2023/05/01 09:43:30;;;;;;;2.77;2.53;;;28.30;58.00;;;28.74;nan;100472.25;5011341;28;20677;-70
2023/05/01 09:46:09;;;;;;;3.00;2.80;;;28.70;56.50;;;29.67;nan;100470.28;5013436;28;20655;-71
2023/05/01 09:48:37;;;;;;;3.17;2.97;;;29.40;55.90;;;30.47;nan;100473.75;5023728;28;20663;-71
2023/05/01 09:51:26;;;;;;;7.90;3.40;;;30.30;54.50;;;32.22;nan;100479.94;5015166;28;20678;-68
2023/05/01 09:53:58;;;;;;;2.90;2.70;;;32.00;52.80;;;32.69;nan;100475.50;5007273;28;20643;-68
2023/05/01 09:56:27;;;;;;;2.40;2.23;;;33.00;50.30;;;33.52;nan;100466.59;5016402;28;20639;-69
2023/05/01 09:58:58;;;;;;;3.50;3.00;;;33.60;49.40;;;34.11;nan;100466.25;5012830;28;21221;-69
2023/05/01 10:01:43;;;;;;;2.90;2.70;;;34.20;48.90;;;34.28;nan;100464.09;5010977;28;21256;-70
2023/05/01 10:04:11;;;;;;;4.47;3.27;;;34.50;47.90;;;34.04;nan;100473.81;5009296;28;20634;-69
2023/05/01 10:06:39;;;;;;;2.77;2.57;;;34.30;47.90;;;32.87;nan;100472.41;5011308;28;20633;-69
2023/05/01 10:09:15;;;;;;;2.60;2.40;;;33.30;47.20;;;32.58;nan;100464.91;5005855;28;20657;-69
2023/05/01 10:11:52;;;;;;;3.37;3.17;;;32.70;47.70;;;32.23;nan;100461.84;5002231;28;20668;-70
2023/05/01 10:14:20;;;;;;;2.40;2.30;;;32.10;47.70;;;31.56;nan;100458.69;5005542;28;21267;-67
2023/05/01 10:16:48;;;;;;;2.00;1.70;;;31.50;48.30;;;31.19;nan;100453.88;5007671;28;20637;-69
2023/05/01 10:19:19;;;;;;;2.83;2.63;;;31.00;49.00;;;30.61;nan;100458.88;5009516;28;20636;-69
2023/05/01 10:21:46;;;;;;;2.87;2.63;;;30.40;49.50;;;29.93;nan;100461.72;5009316;28;20669;-70
2023/05/01 10:24:15;;;;;;;3.90;3.60;;;29.70;49.80;;;29.39;nan;100460.31;5002479;28;20632;-69
2023/05/01 10:26:43;;;;;;;3.07;2.80;;;29.10;50.40;;;28.91;nan;100454.38;5011929;28;20642;-69
2023/05/01 10:29:11;;;;;;;2.93;2.73;;;28.60;50.90;;;27.78;nan;100458.97;5008013;28;20641;-70
2023/05/01 10:31:38;;;;;;;2.63;2.43;;;27.70;51.00;;;26.74;nan;100456.38;5019721;28;20673;-69
2023/05/01 10:34:10;;;;;;;3.13;2.93;;;26.70;52.40;;;26.25;nan;100448.28;5010779;28;20644;-68